SBPK/PET METAR and TAF weather

Enter ICAO airport designator
Station Type Date Time Source
SBPK METAR 2020/12/04 20:00 UTC NOAA

SBPK 042000Z 19020KT 9999 FEW030 23/14 Q1017


Station Type Date Time Source
SBPK Decoded METAR 2020/12/04 20:00 UTC NOAA

Pelotas, Brazil (SBPK) 31-52S 052-21W 13M
Dec 04, 2020 - 03:00 PM EST / 2020.12.04 2000 UTC
Wind: from the S (190 degrees) at 23 MPH (20 KT):0
Visibility: greater than 7 mile(s):0
Sky conditions: mostly clear
Temperature: 73 F (23 C)
Dew Point: 57 F (14 C)
Relative Humidity: 56%
Pressure (altimeter): 30.03 in. Hg (1017 hPa)
ob: SBPK 042000Z 19020KT 9999 FEW030 23/14 Q1017
cycle: 20

Station Type Date Time Source
SBPK TAF 2020/12/05 06:16 UTC NOAA

TAF SBPK 050300Z 0506/0606 22006KT 8000 SCT020 TN22/0509Z TX26/0518Z PROB30 0508/0511 4000 BR BKN008
BECMG 0512/0514 23011KT
BECMG 0521/0523 23006KT
RMK PEI

Example: see airport list